メインページ
METAR-TAF:

METAR-TAF

空港 :

ダカール, セネガル

レオポール・セダール・サンゴール国際空港

緯度: 14-44N, 経度: 017-30W, 海抜: 27m

現時点の気象観測

当レポートは51分前の01:00(UTC)に作成
北/北東の風 12kt
気温 18°C
湿度 77%
気圧 1016 hPa
視程: 6000m

METAR: GOOY 180100Z 02012KT 6000 NSC 18/14 Q1016

時間: 01:51 (01:51 UTC)

予報

当レポートは2時間21分前の23:30(UTC)に作成
予報は18日の 00時(UTC)から 19日の 06時(UTC)まで有効
北/北東の風 16kt
視程: 4500m
広範な塵

TAF: GOOY 172330Z 1800/1906 02016KT 4500 DU NSC

4,000以上の空港の気象観測と天気予報(METAR報とTAF報)

利用可能な観測所は地図上に黄色い丸と赤い丸で示す。

丸の上にカーソルを重ねると観測所名を参照できる。

次にクリックすると気象観測と天気予報を参照できる。

マップの切り替え:黒色「×」印の緑ボタンをクリックして拡大、「-」印の緑ボタンをクリックして縮小、緑色の三角印をクリックして隣りの地図に切り替え


METAR-TAF: